Date,TemperatureHighF,TemperatureAvgF,TemperatureLowF,DewpointHighF,DewpointAvgF,DewpointLowF,HumidityHigh,HumidityAvg,HumidityLow,PressureMaxIn,PressureMinIn,WindSpeedMaxMPH,WindSpeedAvgMPH,GustSpeedMaxMPH,PrecipitationSumIn
2013-1-1,34,29,17,26,18,5,80,63,50,0.00,40.00,14,8,0,0.00
2013-1-2,26,16,7,8,4,-6,73,59,44,0.00,40.00,12,6,0,0.00
2013-1-3,23,12,3,3,-2,-5,70,55,37,0.00,40.00,10,7,0,0.00
2013-1-4,36,25,7,23,17,3,96,73,57,0.00,40.00,9,4,0,0.00
2013-1-5,37,30,17,24,19,15,92,65,43,0.00,40.00,11,5,0,0.00
2013-1-6,40,28,16,29,24,15,99,86,61,0.00,40.00,6,2,0,0.01
2013-1-7,37,26,14,27,24,14,100,91,65,0.00,40.00,4,2,0,0.00
2013-1-8,45,29,14,27,23,14,100,81,45,0.00,40.00,8,2,0,0.00
2013-1-9,41,31,20,33,27,20,100,86,61,0.00,40.00,12,2,0,0.00
2013-1-10,44,38,26,31,26,23,92,62,47,0.00,40.00,21,8,0,0.00
2013-1-11,38,30,21,37,27,21,100,90,67,0.00,40.00,5,2,0,0.09
2013-1-12,40,38,35,40,38,35,100,100,100,0.00,40.00,3,1,0,0.03
2013-1-13,49,42,39,49,42,39,100,100,100,0.00,40.00,4,2,0,0.01
2013-1-14,56,49,43,49,47,43,100,95,73,0.00,40.00,11,5,0,0.00
2013-1-16,31,30,28,31,30,28,100,100,100,0.00,40.00,2,1,0,0.00
2013-1-17,40,31,23,33,25,9,100,79,47,0.00,40.00,10,4,0,0.00
2013-1-18,26,18,13,9,-1,-8,59,43,34,0.00,40.00,14,7,0,0.54
2013-1-19,44,34,16,26,19,4,67,54,42,0.00,40.00,12,5,0,0.00
2013-1-20,51,40,29,31,25,12,74,57,34,0.00,40.00,25,11,0,0.00
2013-1-21,28,24,19,20,8,2,98,54,39,0.00,40.00,17,6,0,0.00
2013-1-22,24,20,14,19,9,0,91,65,38,0.00,40.00,14,5,0,0.00
2013-1-23,12,8,3,4,-3,-9,73,60,40,0.00,40.00,9,5,0,0.00
2013-1-24,15,11,9,-5,-17,-100,51,42,37,0.00,40.00,13,9,0,0.00
2013-1-25,20,13,7,-1,-3,-4,60,49,37,0.00,40.00,10,7,0,0.00
2013-1-26,24,16,10,13,4,-5,94,62,36,0.00,40.00,7,4,0,0.00
2013-1-27,28,19,13,6,2,-3,66,50,35,0.00,40.00,9,6,0,0.00
2013-1-28,27,20,11,23,9,-5,100,65,26,0.00,40.00,4,2,0,0.00
2013-1-29,35,28,23,32,26,22,100,91,73,0.00,40.00,2,1,0,0.04
2013-1-30,59,42,32,57,41,32,100,99,91,0.00,40.00,8,2,0,0.20
2013-1-31,59,42,31,58,26,10,100,56,41,0.00,40.00,14,11,0,0.08
2013-2-1,32,28,20,15,10,7,62,49,36,0.00,40.00,11,6,0,0.00
2013-2-2,29,23,16,11,7,4,71,53,35,0.00,40.00,6,4,0,0.00
2013-2-3,27,24,18,21,17,13,100,76,56,0.00,40.00,4,2,0,0.00
2013-2-4,29,25,21,19,11,3,82,58,37,0.00,40.00,11,8,0,0.00
2013-2-5,28,20,11,18,8,4,86,60,37,0.00,40.00,9,2,0,0.00
2013-2-6,37,28,22,25,18,-100,97,74,51,0.00,40.00,10,3,0,0.00
2013-2-7,27,20,15,11,-3,-100,64,41,24,0.00,40.00,8,3,0,0.00
2013-2-8,23,18,15,19,16,10,100,92,58,0.00,40.00,9,4,0,0.13
2013-2-9,23,18,14,19,14,6,100,85,57,0.00,40.00,8,4,0,0.08
2013-2-10,38,20,2,12,6,-2,90,58,28,0.00,40.00,6,3,0,0.02
2013-2-11,39,23,6,39,21,3,100,93,77,0.00,40.00,3,1,0,0.31
2013-2-12,42,37,31,34,30,28,100,78,61,0.00,40.00,12,7,0,0.00
2013-2-13,43,31,21,28,24,20,100,77,47,0.00,40.00,7,2,0,0.01
2013-2-14,42,33,23,26,23,18,100,68,39,0.00,40.00,5,2,0,0.00
2013-2-15,52,35,17,34,28,17,100,79,43,0.00,40.00,4,1,0,0.02
2013-2-16,40,34,26,33,25,-100,100,78,47,0.00,40.00,4,2,0,0.00
2013-2-17,31,22,17,20,13,6,100,72,41,0.00,40.00,16,7,0,0.05
2013-2-18,29,21,14,8,3,-100,66,50,30,0.00,40.00,16,12,0,0.02
2013-2-19,41,32,20,41,19,0,100,62,22,0.00,40.00,7,3,0,0.19
2013-2-20,37,32,27,37,24,17,100,72,56,0.00,40.00,14,9,0,0.00
2013-2-21,29,26,22,18,14,12,80,63,51,0.00,40.00,14,7,0,0.00
2013-2-22,41,30,18,26,20,16,96,69,37,0.00,40.00,7,2,0,0.00
2013-2-23,38,33,27,34,30,26,100,91,72,0.00,40.00,3,1,0,0.03
2013-2-24,36,33,29,36,33,29,100,100,100,0.00,40.00,6,3,0,0.66
2013-2-25,41,32,23,32,29,23,100,89,63,0.00,40.00,3,0,0,0.09
2013-2-26,42,33,26,36,30,26,100,92,64,0.00,40.00,5,1,0,0.00
2013-2-27,41,37,33,38,35,30,100,93,76,0.00,40.00,15,9,0,1.36
2013-2-28,47,38,33,37,35,33,100,89,65,0.00,40.00,4,3,0,0.10
2013-3-1,40,36,31,33,30,29,100,83,64,0.00,40.00,6,3,0,0.00
2013-3-2,44,36,30,33,30,28,99,78,54,0.00,40.00,5,3,0,0.00
2013-3-3,39,34,30,35,32,27,100,91,76,0.00,40.00,11,6,0,0.03
2013-3-4,36,33,30,28,26,24,80,75,66,0.00,40.00,12,9,0,0.00
2013-3-5,44,36,30,34,29,23,99,74,56,0.00,40.00,7,4,0,0.00
2013-3-6,38,35,32,36,34,29,100,93,70,0.00,40.00,13,9,0,0.24
2013-3-7,34,32,31,33,29,25,100,88,70,0.00,40.00,11,7,0,0.08
2013-3-8,45,35,28,31,25,18,100,75,35,0.00,40.00,7,6,0,0.55
2013-3-9,44,36,25,30,24,19,100,64,37,0.00,40.00,7,4,0,0.04
2013-3-10,42,31,20,32,27,20,100,87,62,0.00,40.00,6,2,0,0.00
2013-3-11,52,41,32,39,34,30,100,80,43,0.00,40.00,5,3,0,0.00
2013-3-12,49,44,38,48,44,38,100,98,93,0.00,40.00,8,4,0,0.32
2013-3-13,49,43,30,49,36,24,100,79,49,0.00,40.00,9,5,0,0.02
2013-3-14,36,31,23,28,21,8,98,68,52,0.00,40.00,17,8,0,0.01
2013-3-15,40,28,19,31,13,7,100,57,29,0.00,40.00,14,8,0,0.00
2013-3-16,35,31,27,30,18,9,100,61,34,0.00,40.00,11,6,0,0.00
2013-3-17,34,28,20,18,11,0,86,52,32,0.00,40.00,12,5,0,0.01
2013-3-18,36,26,15,25,10,0,72,52,28,0.00,40.00,6,3,0,0.03
2013-3-19,33,31,25,32,30,24,100,98,70,0.00,40.00,15,9,0,0.74
2013-3-20,37,30,23,27,24,21,100,82,58,0.00,40.00,17,8,0,0.65
2013-3-21,40,30,19,29,21,15,98,69,37,0.00,40.00,8,3,0,0.00
2013-3-22,39,33,29,29,21,16,97,62,41,0.00,40.00,11,5,0,0.00
2013-3-23,40,34,27,26,22,20,78,62,47,0.00,40.00,21,12,0,0.00
2013-3-24,46,38,31,30,26,21,94,64,40,0.00,40.00,14,6,0,0.00
2013-3-25,42,35,25,34,30,25,100,83,66,0.00,40.00,10,4,0,0.00
2013-3-26,50,41,32,32,24,19,78,54,30,0.00,40.00,7,4,0,0.00
2013-3-27,52,41,29,35,28,24,84,61,38,0.00,40.00,8,5,0,0.00
2013-3-28,49,41,36,37,34,29,100,77,51,0.00,40.00,5,3,0,0.00
2013-3-29,53,43,32,40,35,31,98,74,47,0.00,40.00,6,3,0,0.00
2013-3-30,55,46,34,35,28,17,83,55,23,0.00,40.00,7,4,0,0.00
2013-3-31,54,42,25,38,29,20,100,66,30,0.00,40.00,8,4,0,0.00
2013-4-1,57,46,38,44,39,19,100,79,46,0.00,40.00,21,8,0,0.00
2013-4-2,38,34,30,19,16,13,54,47,39,0.00,40.00,20,13,0,0.00
2013-4-3,45,36,30,19,16,13,58,44,32,0.00,40.00,20,14,0,0.00
2013-4-4,56,42,30,20,17,12,57,39,20,0.00,40.00,15,8,0,0.02
2013-4-5,59,46,38,31,25,19,69,46,22,0.00,40.00,9,5,0,0.00
2013-4-6,44,36,28,23,13,4,68,41,19,0.00,40.00,12,7,0,0.00
2013-4-7,54,40,23,36,26,18,93,62,31,0.00,40.00,10,4,0,0.00
2013-4-8,63,50,39,42,38,32,100,68,33,0.00,40.00,8,4,0,0.00
2013-4-9,62,50,42,48,42,37,100,78,52,0.00,40.00,10,4,0,0.05
2013-4-10,56,48,43,49,45,42,100,90,72,0.00,40.00,4,2,0,0.53
2013-4-11,49,45,42,47,40,27,100,83,53,0.00,40.00,6,3,0,0.14
2013-4-12,42,37,35,37,31,22,100,81,45,0.00,40.00,10,8,0,0.27
2013-4-13,51,40,34,39,36,34,100,88,58,0.00,40.00,9,4,0,0.11
2013-4-14,51,45,40,40,36,32,100,73,50,0.00,40.00,11,5,0,0.00
2013-4-15,51,41,29,40,35,29,100,79,48,0.00,40.00,8,4,0,0.00
2013-4-16,66,50,36,51,41,35,100,74,45,0.00,40.00,11,6,0,0.00
2013-4-17,64,57,47,53,36,28,89,50,27,0.00,40.00,9,6,0,0.00
2013-4-18,52,46,32,40,34,30,100,68,45,0.00,40.00,10,5,0,0.00
2013-4-19,75,61,49,62,54,40,100,77,55,0.00,40.00,12,6,0,0.00
2013-4-20,68,54,46,65,44,26,100,70,40,0.00,40.00,16,11,0,0.38
2013-4-21,50,42,32,30,24,19,93,52,30,0.00,40.00,13,6,0,0.00
2013-4-22,49,39,28,36,30,23,100,73,36,0.00,40.00,12,5,0,0.00
2013-4-23,41,39,37,41,37,30,100,93,73,0.00,40.00,9,5,0,0.07
2013-4-24,68,51,41,53,47,41,100,85,59,0.00,40.00,7,4,0,0.02
2013-4-25,62,56,46,52,39,24,90,56,27,0.00,40.00,15,7,0,0.02
2013-4-26,56,46,33,40,35,28,99,69,36,0.00,40.00,9,4,0,0.00
2013-4-27,60,48,33,41,36,32,100,68,36,0.00,40.00,7,3,0,0.00
2013-4-28,62,50,34,44,38,33,100,70,36,0.00,40.00,9,4,0,0.00
2013-4-29,65,52,37,49,41,33,99,70,36,0.00,40.00,8,3,0,0.00
2013-4-30,67,53,36,43,32,21,93,54,17,0.00,40.00,6,3,0,0.00
2013-5-1,66,50,34,42,35,28,100,64,26,0.00,40.00,7,3,0,0.00
2013-5-2,73,50,37,47,41,37,100,74,31,0.00,40.00,13,4,0,0.00
2013-5-3,55,47,37,44,40,36,100,80,58,0.00,40.00,8,3,0,0.00
2013-5-4,56,45,35,47,39,35,100,82,54,0.00,40.00,7,4,0,0.00
2013-5-5,57,45,32,42,38,32,100,80,54,0.00,40.00,6,3,0,0.00
2013-5-6,60,46,34,49,43,34,100,91,64,0.00,40.00,7,3,0,0.01
2013-5-7,73,58,45,57,51,45,100,81,49,0.00,40.00,6,2,0,0.01
2013-5-8,69,59,47,61,55,47,100,89,72,0.00,40.00,7,4,0,0.01
2013-5-9,62,56,54,59,56,53,100,98,90,0.00,40.00,5,2,0,0.70
2013-5-10,73,59,52,62,55,-100,100,89,60,0.00,40.00,6,3,0,0.02
2013-5-11,70,61,51,63,58,51,100,90,72,0.00,40.00,8,4,0,0.10
2013-5-12,69,60,52,60,53,31,100,79,48,0.00,40.00,14,6,0,0.08
2013-5-13,57,50,42,34,32,29,65,49,37,0.00,40.00,13,8,0,0.00
2013-5-14,58,50,37,38,33,27,86,54,32,0.00,40.00,8,4,0,0.00
2013-5-15,64,50,33,50,40,31,97,74,32,0.00,40.00,7,3,0,0.04
2013-5-16,77,57,43,52,23,-100,100,62,28,0.00,40.00,17,6,0,0.00
2013-5-17,66,56,46,45,37,-100,87,59,37,0.00,40.00,6,4,0,0.00
2013-5-18,67,53,41,51,46,41,100,80,39,0.00,40.00,10,4,0,0.00
2013-5-19,62,53,50,52,50,48,98,89,69,0.00,40.00,7,3,0,0.02
2013-5-20,78,64,50,64,58,50,100,85,62,0.00,40.00,6,3,0,0.09
2013-5-21,59,54,49,57,53,49,100,94,84,0.00,40.00,8,5,0,0.07
2013-5-22,59,53,49,54,51,49,100,95,79,0.00,40.00,5,4,0,1.09
2013-5-23,74,60,51,68,58,51,100,93,78,0.00,40.00,6,2,0,0.11
2013-5-24,72,64,52,68,61,51,100,93,77,0.00,40.00,5,3,0,0.86
2013-5-25,51,49,43,51,48,39,99,96,88,0.00,40.00,6,4,0,0.81
2013-5-26,58,49,40,44,41,39,98,75,55,0.00,40.00,10,6,0,0.31
2013-5-27,69,55,40,45,40,34,91,62,29,0.00,40.00,8,5,0,0.00
2013-5-28,69,55,39,49,42,37,100,69,32,0.00,40.00,6,2,0,0.00
2013-5-29,63,57,48,60,56,48,100,97,90,0.00,40.00,4,2,0,0.28
2013-5-30,85,70,56,69,63,56,100,81,52,0.00,40.00,7,3,0,0.00
2013-5-31,92,76,59,69,64,59,100,72,40,0.00,40.00,8,3,0,0.00
2013-6-1,93,80,63,69,66,59,100,67,34,0.00,40.00,7,3,0,0.00
2013-6-2,90,79,67,71,67,60,97,69,38,0.00,40.00,11,5,0,0.00
2013-6-3,78,70,64,67,63,49,99,81,53,0.00,40.00,10,4,0,0.18
2013-6-4,67,62,54,51,46,43,76,57,42,0.00,40.00,9,5,0,0.00
2013-6-5,70,60,48,51,48,43,90,65,38,0.00,40.00,6,3,0,0.00
2013-6-6,69,59,51,57,53,50,99,80,52,0.00,40.00,6,3,0,0.00
2013-6-7,57,54,51,55,53,51,100,95,83,0.00,40.00,8,4,0,1.31
2013-6-8,74,62,52,64,58,52,100,88,69,0.00,40.00,8,4,0,0.90
2013-6-9,79,66,52,61,57,52,100,78,51,0.00,40.00,6,2,0,0.00
2013-6-10,67,60,51,59,56,51,100,88,69,0.00,40.00,5,2,0,0.17
2013-6-11,61,56,54,57,55,53,100,96,81,0.00,40.00,9,5,0,1.48
2013-6-12,66,61,56,58,56,54,100,85,71,0.00,40.00,6,4,0,0.05
2013-6-13,70,60,54,58,54,52,99,84,55,0.00,40.00,4,2,0,0.17
2013-6-14,78,62,53,61,56,53,100,83,42,0.00,40.00,5,2,0,0.41
2013-6-15,77,65,53,55,47,-100,100,66,32,0.00,40.00,6,3,0,0.00
2013-6-16,75,64,50,61,55,50,100,76,49,0.00,40.00,6,2,0,0.00
2013-6-17,83,67,57,64,60,57,100,83,47,0.00,40.00,8,4,0,0.88
2013-6-18,70,62,56,62,59,55,100,90,72,0.00,40.00,4,2,0,0.02
2013-6-19,74,63,52,57,52,47,100,72,45,0.00,40.00,4,2,0,0.00
2013-6-20,74,60,47,55,51,47,100,76,42,0.00,40.00,5,2,0,0.00
2013-6-22,85,79,72,68,66,62,76,64,52,0.00,40.00,6,3,0,0.00
2013-6-23,88,75,62,74,67,61,98,77,59,0.00,40.00,5,2,0,0.01
2013-6-24,91,79,68,73,70,66,97,76,47,0.00,40.00,12,4,0,0.20
2013-6-25,90,78,69,73,69,67,99,77,51,0.00,40.00,8,5,0,0.31
2013-6-26,78,70,60,72,68,60,100,95,78,0.00,40.00,6,3,0,0.23
2013-6-27,70,62,58,64,60,58,100,96,82,0.00,40.00,6,3,0,0.35
2013-6-28,80,63,55,73,62,55,100,97,79,0.00,40.00,7,4,0,0.41
2013-6-29,84,74,66,72,69,66,100,85,62,0.00,40.00,6,3,0,0.00
2013-6-30,86,76,64,74,70,64,100,82,58,0.00,40.00,5,2,0,0.00
2013-7-1,80,72,67,73,71,67,100,94,78,0.00,40.00,3,2,0,1.16
2013-7-2,75,66,58,74,66,58,100,98,95,0.00,40.00,5,3,0,0.08
2013-7-3,88,72,58,75,67,58,100,86,62,0.00,40.00,5,2,0,0.00
2013-7-4,93,82,72,77,74,71,98,77,56,0.00,40.00,5,4,0,0.00
2013-7-5,93,83,75,77,74,73,93,75,56,0.00,40.00,6,4,0,0.00
2013-7-6,87,81,76,74,72,69,91,76,59,0.00,40.00,10,5,0,0.00
2013-7-7,89,78,68,73,70,67,99,77,52,0.00,40.00,5,3,0,0.12
2013-7-8,79,72,64,74,69,63,100,92,73,0.00,40.00,8,3,0,0.06
2013-7-9,73,67,63,66,64,62,99,88,75,0.00,40.00,5,2,0,0.00
2013-7-10,79,67,63,73,64,-100,100,95,82,0.00,40.00,5,3,0,0.39
2013-7-11,83,75,68,75,72,67,100,93,74,0.00,40.00,4,2,0,0.16
2013-7-12,77,70,62,68,60,57,99,72,52,0.00,40.00,9,4,0,0.00
2013-7-13,78,69,60,65,61,58,99,78,55,0.00,40.00,4,2,0,0.00
2013-7-14,88,76,65,74,70,64,100,84,61,0.00,40.00,4,2,0,0.00
2013-7-15,89,76,66,76,71,66,100,86,58,0.00,40.00,3,1,0,0.00
2013-7-16,92,76,65,74,69,65,100,81,49,0.00,40.00,5,2,0,0.00
2013-7-17,94,81,66,75,72,66,100,76,51,0.00,40.00,5,2,0,0.13
2013-7-18,86,76,71,74,72,70,100,87,66,0.00,40.00,6,2,0,0.05
2013-7-19,94,81,68,78,73,68,100,79,50,0.00,40.00,9,4,0,0.01
2013-7-20,91,80,75,77,67,-100,78,67,55,0.00,40.00,8,5,0,0.00
2013-7-21,77,72,63,66,64,57,100,77,55,0.00,40.00,5,3,0,0.00
2013-7-22,79,69,64,70,66,64,100,90,72,0.00,40.00,7,3,0,0.00
2013-7-23,75,69,66,71,68,66,100,97,87,0.00,40.00,4,2,0,1.06
2013-7-24,84,74,66,73,67,55,100,82,59,0.00,40.00,4,2,0,0.00
2013-7-25,66,62,59,60,54,50,98,77,66,0.00,40.00,7,3,0,0.13
2013-7-26,73,66,61,66,63,60,98,91,76,0.00,40.00,5,3,0,0.11
2013-7-27,84,71,62,69,63,60,94,78,49,0.00,40.00,7,4,0,0.00
2013-7-28,73,67,62,68,65,62,100,95,86,0.00,40.00,6,3,0,0.03
2013-7-29,77,68,64,70,66,63,100,94,79,0.00,40.00,5,2,0,0.21
2013-7-30,81,70,59,66,62,57,100,78,44,0.00,40.00,7,2,0,0.00
2013-7-31,79,68,55,63,60,55,100,77,52,0.00,40.00,4,2,0,0.01
2013-8-1,79,68,57,66,62,57,100,85,62,0.00,40.00,6,3,0,0.00
2013-8-2,82,70,63,69,64,59,100,82,49,0.00,40.00,7,2,0,0.56
2013-8-3,80,69,60,63,61,59,96,77,48,0.00,40.00,9,3,0,0.00
2013-8-4,79,68,57,61,58,55,95,71,51,0.00,40.00,7,3,0,0.00
2013-8-5,75,66,58,56,50,42,86,62,31,0.00,40.00,8,5,0,0.00
2013-8-6,77,62,46,57,51,46,100,73,41,0.00,40.00,5,2,0,0.00
2013-8-7,78,64,51,63,57,51,100,79,48,0.00,40.00,5,2,0,0.00
2013-8-8,83,72,62,71,65,55,97,80,64,0.00,40.00,6,3,0,0.03
2013-8-9,73,71,69,71,70,68,100,96,91,0.00,40.00,6,3,0,1.39
2013-8-10,82,72,58,69,63,53,100,75,43,0.00,40.00,9,4,0,0.01
2013-8-11,82,66,51,62,56,51,100,76,46,0.00,40.00,6,3,0,0.00
2013-8-12,81,66,53,62,58,53,100,80,46,0.00,40.00,6,2,0,0.00
2013-8-13,73,65,59,67,62,-100,100,91,79,0.00,40.00,3,2,0,0.00
2013-8-14,75,65,61,64,56,-100,100,75,50,0.00,40.00,11,6,0,0.00
2013-8-15,76,60,54,58,42,-100,96,69,45,0.00,40.00,8,5,0,0.00
2013-8-16,79,62,49,60,51,-100,100,76,43,0.00,40.00,6,3,0,0.00
2013-8-17,76,64,52,63,56,52,100,79,50,0.00,40.00,5,2,0,0.00
2013-8-18,81,66,54,66,60,54,100,84,57,0.00,40.00,3,2,0,0.00
2013-8-19,80,68,57,66,53,-100,100,79,57,0.00,40.00,9,4,0,0.00
2013-8-20,86,71,60,67,61,-100,100,78,49,0.00,40.00,4,2,0,0.00
2013-8-21,88,72,57,69,64,57,100,81,50,0.00,40.00,5,2,0,0.00
2013-8-22,87,74,60,70,66,60,100,79,51,0.00,40.00,6,3,0,0.00
2013-8-23,80,71,58,69,60,52,95,71,40,0.00,40.00,6,3,0,0.00
2013-8-24,76,64,46,53,49,46,100,63,39,0.00,40.00,5,2,0,0.00
2013-8-25,77,63,47,60,53,47,100,75,42,0.00,40.00,5,2,0,0.00
2013-8-26,81,70,58,69,64,56,97,81,65,0.00,40.00,8,3,0,0.03
2013-8-27,83,73,64,68,67,63,100,83,61,0.00,40.00,5,2,0,0.00
2013-8-28,80,71,64,68,66,64,99,84,66,0.00,40.00,5,4,0,0.00
2013-8-29,66,64,62,65,62,59,100,91,82,0.00,40.00,8,4,0,0.04
2013-8-30,84,71,62,69,64,60,96,81,59,0.00,40.00,5,3,0,0.00
2013-8-31,83,74,66,74,70,65,98,88,75,0.00,40.00,5,2,0,0.00
2013-9-17,65,51,35,50,40,35,100,71,42,0.00,40.00,5,2,0,0.00
2013-9-18,48,43,39,47,43,39,100,98,94,0.00,40.00,3,2,0,0.00
2013-9-19,76,60,47,55,50,46,100,76,40,0.00,40.00,4,2,0,0.00
2013-9-20,75,58,44,58,52,44,100,84,50,0.00,40.00,4,2,0,0.00
2013-9-21,74,60,44,64,57,44,100,90,70,0.00,40.00,4,2,0,0.01
2013-9-22,71,64,54,65,58,47,100,83,55,0.00,40.00,9,5,0,0.56
2013-9-23,62,54,47,46,44,42,84,70,53,0.00,40.00,8,4,0,0.00
2013-9-24,65,52,43,50,44,41,97,77,46,0.00,40.00,6,4,0,0.00
2013-9-25,64,52,39,52,47,39,100,85,58,0.00,40.00,4,2,0,0.00
2013-9-26,67,56,43,53,49,42,100,79,56,0.00,40.00,4,2,0,0.00
2013-9-27,70,58,45,55,51,45,100,80,55,0.00,40.00,3,2,0,0.00
2013-9-28,73,56,43,57,50,43,100,84,53,0.00,40.00,5,2,0,0.00
2013-9-29,67,55,43,55,50,40,100,87,50,0.00,40.00,5,2,0,0.01
2013-9-30,67,52,40,53,48,40,100,87,55,0.00,40.00,4,2,0,0.00
2013-10-1,58,51,43,54,50,43,100,98,89,0.00,40.00,2,1,0,0.00
2013-10-2,78,62,46,63,56,46,100,83,58,0.00,40.00,7,3,0,0.00
2013-10-3,77,63,47,60,54,47,100,77,43,0.00,40.00,5,2,0,0.00
2013-10-4,67,57,45,58,54,45,100,91,68,0.00,40.00,3,1,0,0.00
2013-10-26,53,41,26,35,29,25,99,66,34,0.00,40.00,8,4,0,0.00
2013-10-27,54,47,34,41,36,30,91,69,45,0.00,40.00,11,6,0,0.05
2013-10-28,57,42,30,37,30,-100,94,66,45,0.00,40.00,14,5,0,0.00
2013-10-29,49,34,22,29,24,18,99,74,29,0.00,40.00,4,2,0,0.00
2013-10-30,49,36,26,37,31,25,100,85,60,0.00,40.00,7,2,0,0.01
2013-10-31,60,41,28,59,40,28,100,97,86,0.00,40.00,7,2,0,0.10
2013-11-1,71,65,59,61,57,53,97,76,58,0.00,40.00,16,9,0,0.01
2013-11-2,64,52,40,53,45,40,100,80,45,0.00,40.00,6,2,0,0.02
2013-11-3,50,42,33,48,32,18,97,69,42,0.00,40.00,6,3,0,0.10
2013-11-4,44,32,23,23,18,14,98,61,31,0.00,40.00,6,2,0,0.00
2013-11-5,50,35,23,33,27,21,98,76,47,0.00,40.00,4,2,0,0.00
2013-11-13,34,28,25,18,16,11,71,60,48,0.00,40.00,10,6,0,0.00
2013-11-14,49,36,28,31,22,13,80,58,42,0.00,40.00,12,5,0,0.00
2013-11-15,57,35,26,29,25,19,92,70,23,0.00,40.00,2,1,0,0.00
2013-11-16,57,39,29,34,30,24,100,75,27,0.00,40.00,5,1,0,0.00
2013-11-17,52,42,30,52,42,30,100,99,93,0.00,40.00,5,2,0,0.12
2013-11-18,64,55,44,61,48,38,100,81,45,0.00,40.00,12,5,0,0.14
2013-11-19,48,39,32,34,23,17,63,54,42,0.00,40.00,15,10,0,0.00
2013-11-20,42,32,22,20,16,12,85,53,29,0.00,40.00,8,5,0,0.00
2013-11-21,46,30,18,26,20,15,96,70,30,0.00,40.00,5,2,0,0.00
2013-11-22,41,36,30,40,34,26,100,93,83,0.00,40.00,3,1,0,0.10
2013-11-23,42,38,30,42,27,20,100,68,46,0.00,40.00,16,9,0,0.00
2013-11-24,30,24,20,23,9,3,81,52,38,0.00,40.00,16,13,0,0.00
2013-11-25,30,23,18,11,2,-2,49,41,25,0.00,40.00,17,10,0,0.00
2013-11-26,36,32,29,32,25,12,99,75,48,0.00,40.00,6,2,0,0.01
2013-11-27,60,47,33,60,47,32,100,98,87,0.00,40.00,16,8,0,1.16
2013-11-28,37,31,25,32,19,9,84,61,47,0.00,40.00,20,13,0,0.00
2013-11-29,30,24,17,13,10,4,74,55,37,0.00,40.00,12,6,0,0.00
2013-11-30,33,23,12,23,16,9,93,75,55,0.00,40.00,5,2,0,0.00
2013-12-1,36,33,30,35,30,21,100,90,70,0.00,40.00,3,1,0,0.24
2013-12-2,39,36,35,38,36,35,100,98,93,0.00,40.00,4,2,0,0.01
2013-12-3,47,37,30,38,34,30,100,92,66,0.00,40.00,6,3,0,0.00
2013-12-4,39,34,26,31,28,25,97,82,66,0.00,40.00,10,5,0,0.00
2013-12-5,39,35,25,39,35,25,100,98,89,0.00,40.00,3,1,0,0.04
2013-12-6,45,41,34,45,39,32,100,94,82,0.00,40.00,9,3,0,0.11
2013-12-7,38,34,28,33,26,16,100,77,51,0.00,40.00,12,5,0,0.13
2013-12-8,29,27,22,20,16,13,78,64,51,0.00,40.00,7,4,0,0.00
2013-12-9,39,32,26,39,28,14,100,88,57,0.00,40.00,8,4,0,0.28
2013-12-10,34,31,26,32,28,16,100,89,74,0.00,40.00,12,7,0,0.01
2013-12-11,32,26,19,19,16,14,86,65,47,0.00,40.00,12,8,0,0.00
2013-12-12,25,19,11,19,8,-1,87,63,37,0.00,40.00,10,6,0,0.00
2013-12-13,25,18,13,19,8,-2,82,64,50,0.00,40.00,11,6,0,0.52
2013-12-14,16,12,7,14,2,-7,95,66,40,0.00,40.00,5,4,0,0.05
2013-12-15,31,21,14,31,20,12,100,98,95,0.00,40.00,15,6,0,0.66
2013-12-16,26,21,15,22,13,1,99,74,43,0.00,40.00,16,8,0,0.02
2013-12-17,18,11,-3,13,5,-7,95,77,54,0.00,40.00,6,3,0,0.06
2013-12-18,30,22,14,27,19,13,99,88,67,0.00,40.00,11,5,0,0.17
2013-12-19,41,30,24,23,22,20,89,71,46,0.00,40.00,9,4,0,0.00
2013-12-20,46,35,26,33,30,24,96,82,57,0.00,40.00,5,1,0,0.00
2013-12-21,54,38,31,43,35,31,99,91,62,0.00,40.00,5,1,0,0.00
2013-12-22,40,34,30,40,33,30,100,99,95,0.00,40.00,6,3,0,0.19
2013-12-23,33,31,29,33,31,29,100,100,99,0.00,40.00,3,2,0,0.38
2013-12-24,33,30,25,33,22,13,100,74,49,0.00,40.00,8,4,0,0.03
2013-12-25,24,16,9,13,4,-2,81,60,42,0.00,40.00,9,4,0,0.01
2013-12-26,27,20,13,27,17,10,100,91,75,0.00,40.00,6,2,0,0.10
2013-12-27,33,24,11,22,18,10,97,79,59,0.00,40.00,10,4,0,0.05
2013-12-28,43,31,15,30,24,14,96,75,52,0.00,40.00,7,4,0,0.00
2013-12-29,41,32,24,37,30,24,100,93,68,0.00,40.00,5,2,0,0.88
2013-12-30,39,31,15,34,24,-1,100,78,48,0.00,40.00,14,6,0,0.00
2013-12-31,20,12,8,7,2,-2,94,64,37,0.00,40.00,4,2,0,0.06
2014-1-1,24,18,14,11,8,5,87,64,48,0.00,40.00,15,7,0,0.03
2014-1-2,17,6,-3,13,3,-6,92,86,64,0.00,40.00,8,5,0,0.00